Time;durP1;ratioP1;P1;durP2;ratioP2;P2;SDS_P1;SDS_P2;PMS_P1;PMS_P2;Temp;Humidity;BMP_temperature;BMP_pressure;BME280_temperature;BME280_humidity;BME280_pressure;Samples;Min_cycle;Max_cycle;Signal;HPM_P1;HPM_P2
2023/11/03 00:00:31;;;;;;;6.28;2.30;;;12.10;99.90;;;;;;4989309;28;20625;-78
2023/11/03 00:02:59;;;;;;;6.47;2.25;;;12.10;99.90;;;;;;4997717;28;20209;-77
2023/11/03 00:05:26;;;;;;;5.07;2.30;;;12.10;99.90;;;;;;5003396;28;20201;-78
2023/11/03 00:07:54;;;;;;;3.40;1.92;;;12.00;99.90;;;;;;5006069;28;20319;-80
2023/11/03 00:10:21;;;;;;;6.55;2.30;;;12.20;99.90;;;;;;4996733;28;20208;-78
2023/11/03 00:12:48;;;;;;;3.22;1.60;;;12.30;99.90;;;;;;4991462;28;20307;-80
2023/11/03 00:15:15;;;;;;;8.05;2.38;;;12.50;99.90;;;;;;4997338;28;20213;-79
2023/11/03 00:17:42;;;;;;;5.78;1.83;;;12.50;99.90;;;;;;4993106;28;20501;-80
2023/11/03 00:20:14;;;;;;;6.00;2.35;;;12.60;99.90;;;;;;5001188;28;20216;-78
2023/11/03 00:22:41;;;;;;;4.45;1.85;;;12.70;99.90;;;;;;5005225;28;20295;-77
2023/11/03 00:25:13;;;;;;;6.90;1.50;;;12.80;99.90;;;;;;5007294;28;20240;-79
2023/11/03 00:27:40;;;;;;;3.53;1.70;;;12.80;99.90;;;;;;4995386;28;20236;-79
2023/11/03 00:30:08;;;;;;;7.13;2.42;;;12.80;99.90;;;;;;4997471;28;20237;-79
2023/11/03 00:32:35;;;;;;;12.57;1.95;;;12.80;99.90;;;;;;4991983;28;20212;-78
2023/11/03 00:35:05;;;;;;;4.30;1.67;;;12.80;99.90;;;;;;4993249;28;20701;-78
2023/11/03 00:37:34;;;;;;;7.05;1.95;;;12.80;99.90;;;;;;4989432;28;20324;-78
2023/11/03 00:40:00;;;;;;;4.03;2.72;;;12.70;99.90;;;;;;4999723;28;20205;-76
2023/11/03 00:42:29;;;;;;;5.25;2.35;;;12.70;99.90;;;;;;4993026;28;20694;-78
2023/11/03 00:44:57;;;;;;;6.82;1.20;;;12.60;99.90;;;;;;4999238;28;20220;-80
2023/11/03 00:47:24;;;;;;;4.35;1.85;;;12.60;99.90;;;;;;4993072;28;20425;-79
2023/11/03 00:49:52;;;;;;;4.93;2.05;;;12.50;99.90;;;;;;4994181;28;20213;-79
2023/11/03 00:52:19;;;;;;;3.03;1.67;;;12.40;99.90;;;;;;4998388;28;20247;-77
2023/11/03 00:54:46;;;;;;;3.08;1.42;;;12.50;99.90;;;;;;4994419;28;20220;-75
2023/11/03 00:57:12;;;;;;;4.70;2.05;;;12.50;99.90;;;;;;5006804;28;20209;-79
2023/11/03 00:59:41;;;;;;;4.57;1.50;;;12.50;99.90;;;;;;5002762;28;20631;-79
2023/11/03 01:02:09;;;;;;;4.70;1.42;;;12.50;99.90;;;;;;4992549;28;20208;-79
2023/11/03 01:04:37;;;;;;;5.10;2.55;;;12.50;99.90;;;;;;5003213;28;20212;-79
2023/11/03 01:07:04;;;;;;;7.05;1.95;;;12.50;99.90;;;;;;4999763;28;20235;-79
2023/11/03 01:09:31;;;;;;;7.75;2.55;;;12.60;99.90;;;;;;5002789;28;20727;-78
2023/11/03 01:11:58;;;;;;;6.72;2.03;;;12.60;99.90;;;;;;4998310;28;20942;-78
2023/11/03 01:14:25;;;;;;;2.95;2.33;;;12.60;99.90;;;;;;4992236;28;20256;-79
2023/11/03 01:16:54;;;;;;;8.45;1.75;;;12.70;99.90;;;;;;4995624;28;20201;-78
2023/11/03 01:19:21;;;;;;;8.40;2.42;;;12.70;99.90;;;;;;4990890;28;20235;-78
2023/11/03 01:21:48;;;;;;;10.10;1.90;;;12.60;99.90;;;;;;4995036;28;20212;-80
2023/11/03 01:24:15;;;;;;;5.70;1.92;;;12.50;99.90;;;;;;4983673;28;20215;-78
2023/11/03 01:26:43;;;;;;;10.00;2.20;;;12.60;99.90;;;;;;4992766;28;20240;-79
2023/11/03 01:29:10;;;;;;;6.18;2.00;;;12.40;99.90;;;;;;4991979;28;20308;-80
2023/11/03 01:31:37;;;;;;;4.55;1.40;;;12.50;99.90;;;;;;4993519;28;20213;-78
2023/11/03 01:34:05;;;;;;;7.28;1.92;;;12.50;99.90;;;;;;4999394;28;20205;-78
2023/11/03 01:36:35;;;;;;;11.35;4.15;;;12.40;99.90;;;;;;4990511;28;20202;-79
2023/11/03 01:39:02;;;;;;;5.78;1.90;;;12.30;99.90;;;;;;5005118;28;20352;-79
2023/11/03 01:41:28;;;;;;;8.70;2.20;;;12.30;99.90;;;;;;4997694;28;20205;-79
2023/11/03 01:44:05;;;;;;;6.72;2.50;;;12.30;99.90;;;;;;4995676;28;20654;-79
2023/11/03 01:46:33;;;;;;;9.13;2.35;;;12.40;99.90;;;;;;4994000;28;20199;-79
2023/11/03 01:49:00;;;;;;;6.47;2.30;;;12.40;99.90;;;;;;4996732;28;20243;-79
2023/11/03 01:51:28;;;;;;;11.35;1.98;;;12.40;99.90;;;;;;5011236;28;20219;-78
2023/11/03 01:53:55;;;;;;;8.57;4.20;;;12.40;99.90;;;;;;5006872;28;20220;-80
2023/11/03 01:56:22;;;;;;;6.60;1.65;;;12.40;99.90;;;;;;4996481;28;20209;-79
2023/11/03 01:58:50;;;;;;;5.53;2.10;;;12.20;99.90;;;;;;4997675;28;20226;-78
2023/11/03 02:01:17;;;;;;;5.35;2.40;;;12.20;99.90;;;;;;4998855;28;20210;-80
2023/11/03 02:03:43;;;;;;;9.02;2.25;;;12.10;99.90;;;;;;4997722;28;20738;-80
2023/11/03 02:06:10;;;;;;;6.60;2.00;;;12.10;99.90;;;;;;4995247;28;20213;-78
2023/11/03 02:08:39;;;;;;;5.93;3.20;;;12.00;99.90;;;;;;5005954;28;20564;-79
2023/11/03 02:11:06;;;;;;;8.40;3.58;;;12.00;99.90;;;;;;4998768;28;20223;-79
2023/11/03 02:13:38;;;;;;;3.97;1.80;;;11.90;99.90;;;;;;4991504;28;20213;-79
2023/11/03 02:16:06;;;;;;;4.38;1.40;;;11.90;99.90;;;;;;4986291;28;20292;-79
2023/11/03 02:18:32;;;;;;;6.40;1.73;;;11.90;99.90;;;;;;4999451;28;20217;-78
2023/11/03 02:20:59;;;;;;;4.82;2.20;;;11.80;99.90;;;;;;4993648;28;20208;-78
2023/11/03 02:23:27;;;;;;;6.55;2.05;;;12.00;99.90;;;;;;5007325;28;20204;-79
2023/11/03 02:25:54;;;;;;;7.82;1.85;;;11.90;99.90;;;;;;4995983;28;20218;-79
2023/11/03 02:28:21;;;;;;;4.93;2.58;;;11.80;99.90;;;;;;5011092;28;20231;-79
2023/11/03 02:30:48;;;;;;;3.47;1.70;;;11.80;99.90;;;;;;4999468;28;20210;-79
2023/11/03 02:33:15;;;;;;;4.57;2.15;;;11.80;99.90;;;;;;4997962;28;20293;-78
2023/11/03 02:35:42;;;;;;;4.22;2.00;;;11.70;99.90;;;;;;4998741;28;20682;-78
2023/11/03 02:38:09;;;;;;;5.93;1.48;;;11.80;99.90;;;;;;5002061;28;20248;-79
2023/11/03 02:40:38;;;;;;;7.50;1.80;;;11.60;99.90;;;;;;4997436;28;20209;-78
2023/11/03 02:43:05;;;;;;;8.60;2.20;;;11.60;99.90;;;;;;4993133;28;20209;-78
2023/11/03 02:45:31;;;;;;;6.38;1.30;;;11.60;99.90;;;;;;5004380;28;20214;-78
2023/11/03 02:47:58;;;;;;;8.43;1.75;;;11.50;99.90;;;;;;5000891;28;20315;-79
2023/11/03 02:50:25;;;;;;;4.13;1.63;;;11.40;99.90;;;;;;4992533;28;20211;-78
2023/11/03 02:52:52;;;;;;;10.00;2.33;;;11.40;99.90;;;;;;4991546;28;20216;-79
2023/11/03 02:55:19;;;;;;;8.00;2.65;;;11.40;99.90;;;;;;4992344;28;20651;-78
2023/11/03 02:57:47;;;;;;;6.00;2.67;;;11.40;99.90;;;;;;4999351;28;20233;-79
2023/11/03 03:00:16;;;;;;;6.25;1.95;;;11.40;99.90;;;;;;4993121;28;20273;-79
2023/11/03 03:02:43;;;;;;;4.05;1.83;;;11.20;99.90;;;;;;5000700;28;20611;-79
2023/11/03 03:05:10;;;;;;;5.82;1.40;;;11.20;99.90;;;;;;4998693;28;20207;-79
2023/11/03 03:07:37;;;;;;;2.55;2.33;;;11.20;99.90;;;;;;4985762;28;20241;-78
2023/11/03 03:10:04;;;;;;;3.05;1.00;;;11.10;99.90;;;;;;4992976;28;20278;-79
2023/11/03 03:12:31;;;;;;;12.02;2.53;;;11.10;99.90;;;;;;4981434;28;20215;-78
2023/11/03 03:14:59;;;;;;;3.03;1.67;;;11.10;99.90;;;;;;4983062;28;20217;-78
2023/11/03 03:17:25;;;;;;;1.95;1.40;;;10.90;99.90;;;;;;4979882;28;20229;-78
2023/11/03 03:19:52;;;;;;;1.80;0.90;;;11.00;99.90;;;;;;4988273;28;20209;-78
2023/11/03 03:22:19;;;;;;;7.13;1.40;;;11.00;99.90;;;;;;4983324;28;20211;-78
2023/11/03 03:24:46;;;;;;;10.63;2.35;;;11.00;99.90;;;;;;4987916;28;20283;-78
2023/11/03 03:27:13;;;;;;;4.00;1.30;;;11.00;99.90;;;;;;4995614;28;20305;-78
2023/11/03 03:29:40;;;;;;;2.53;0.88;;;11.00;99.90;;;;;;4990318;28;20306;-78
2023/11/03 03:32:08;;;;;;;3.92;1.20;;;11.00;99.90;;;;;;4983906;28;20217;-78
2023/11/03 03:34:35;;;;;;;3.28;1.05;;;10.90;99.90;;;;;;4983393;28;20557;-78
2023/11/03 03:37:02;;;;;;;5.53;1.00;;;11.00;99.90;;;;;;4994578;28;20244;-78
2023/11/03 03:39:29;;;;;;;4.38;1.38;;;11.00;99.90;;;;;;5001111;28;20299;-77
2023/11/03 03:41:56;;;;;;;1.80;0.90;;;11.00;99.90;;;;;;5017684;28;20241;-77
2023/11/03 03:44:23;;;;;;;2.63;1.00;;;11.00;99.90;;;;;;5003688;28;20243;-78
2023/11/03 03:46:51;;;;;;;3.63;1.20;;;11.00;99.90;;;;;;4999652;28;20287;-77
2023/11/03 03:49:19;;;;;;;2.20;1.00;;;11.00;99.90;;;;;;5003092;28;20223;-78
2023/11/03 03:51:46;;;;;;;5.88;1.67;;;11.00;99.90;;;;;;5001108;28;20275;-79
2023/11/03 03:54:13;;;;;;;7.45;2.03;;;11.10;99.90;;;;;;4989848;28;20269;-77
2023/11/03 03:56:40;;;;;;;14.35;1.90;;;11.00;99.90;;;;;;4988264;28;20645;-77
2023/11/03 03:59:07;;;;;;;5.57;1.25;;;11.10;99.90;;;;;;4986293;28;20232;-78
2023/11/03 04:01:34;;;;;;;2.08;1.13;;;11.10;99.90;;;;;;4993133;28;20204;-77
2023/11/03 04:04:00;;;;;;;4.20;1.17;;;11.10;99.90;;;;;;4987950;28;20275;-77
2023/11/03 04:06:29;;;;;;;3.53;1.33;;;11.00;99.90;;;;;;4990479;28;20273;-78
2023/11/03 04:08:55;;;;;;;2.42;1.10;;;10.90;99.90;;;;;;4990659;28;20241;-80
2023/11/03 04:11:22;;;;;;;3.70;1.27;;;11.00;99.90;;;;;;4993489;28;20216;-77
2023/11/03 04:13:49;;;;;;;5.78;1.85;;;11.00;99.90;;;;;;4995384;28;20306;-76
2023/11/03 04:16:16;;;;;;;3.65;1.20;;;11.00;99.90;;;;;;4988257;28;20436;-77
2023/11/03 04:18:43;;;;;;;6.15;1.52;;;11.00;99.90;;;;;;4986152;28;20315;-78
2023/11/03 04:21:09;;;;;;;3.17;1.08;;;11.10;99.90;;;;;;4997902;28;20221;-77
2023/11/03 04:23:37;;;;;;;3.25;1.15;;;11.10;99.90;;;;;;4987363;28;20211;-78
2023/11/03 04:26:04;;;;;;;5.95;1.02;;;11.10;99.90;;;;;;4994190;28;20222;-78
2023/11/03 04:28:33;;;;;;;6.50;1.40;;;11.20;99.90;;;;;;4988452;28;20229;-78
2023/11/03 04:30:59;;;;;;;3.10;1.50;;;11.20;99.90;;;;;;5002364;28;20219;-78
2023/11/03 04:33:25;;;;;;;2.53;1.20;;;11.30;99.90;;;;;;4990032;28;20204;-78
2023/11/03 04:35:52;;;;;;;3.92;1.08;;;11.30;99.90;;;;;;4993492;28;20222;-77
2023/11/03 04:38:19;;;;;;;1.55;1.00;;;11.20;99.90;;;;;;4996610;28;20218;-78
2023/11/03 04:40:47;;;;;;;2.22;1.40;;;11.30;99.90;;;;;;5002441;28;20654;-78
2023/11/03 04:43:14;;;;;;;1.75;1.23;;;11.30;99.90;;;;;;4999417;28;20280;-77
2023/11/03 04:45:41;;;;;;;2.22;1.20;;;11.30;99.90;;;;;;5002485;28;20279;-77
2023/11/03 04:48:08;;;;;;;2.17;1.38;;;11.40;99.90;;;;;;4994094;28;20319;-78
2023/11/03 04:50:35;;;;;;;3.80;1.50;;;11.30;99.90;;;;;;4997721;28;20296;-77
2023/11/03 04:53:02;;;;;;;3.45;1.08;;;11.30;99.90;;;;;;4999567;28;20250;-77
2023/11/03 04:55:29;;;;;;;2.17;0.90;;;11.40;99.90;;;;;;4987027;28;20211;-77
2023/11/03 04:57:57;;;;;;;5.05;1.13;;;11.40;99.90;;;;;;4994158;28;20235;-78
2023/11/03 05:00:24;;;;;;;5.10;2.20;;;11.30;99.90;;;;;;4996888;28;20292;-77
2023/11/03 05:02:52;;;;;;;3.53;1.15;;;11.30;99.90;;;;;;4992370;28;20300;-78
2023/11/03 05:05:19;;;;;;;2.55;1.30;;;11.40;99.90;;;;;;4998757;28;20215;-78
2023/11/03 05:07:46;;;;;;;2.40;1.25;;;11.30;99.90;;;;;;5004235;28;20292;-77
2023/11/03 05:10:13;;;;;;;3.35;1.23;;;11.30;99.90;;;;;;5004717;28;20288;-79
2023/11/03 05:12:40;;;;;;;6.60;1.30;;;11.30;99.90;;;;;;5002718;28;20226;-77
2023/11/03 05:15:10;;;;;;;1.70;1.25;;;11.30;99.90;;;;;;4995890;28;20210;-77
2023/11/03 05:17:37;;;;;;;5.13;1.38;;;11.30;99.90;;;;;;4998375;28;20228;-77
2023/11/03 05:20:07;;;;;;;6.72;1.88;;;11.20;99.90;;;;;;4998920;28;20209;-77
2023/11/03 05:22:34;;;;;;;4.57;1.63;;;11.30;99.90;;;;;;4993369;28;20214;-78
2023/11/03 05:25:00;;;;;;;6.32;1.30;;;11.30;99.90;;;;;;4995837;28;20331;-78
2023/11/03 05:27:27;;;;;;;3.63;1.23;;;11.30;99.90;;;;;;4986431;28;21011;-77
2023/11/03 05:29:54;;;;;;;5.03;1.83;;;11.30;99.90;;;;;;4994536;28;20219;-78
2023/11/03 05:32:22;;;;;;;4.95;1.33;;;11.20;99.90;;;;;;4992760;28;20291;-77
2023/11/03 05:34:49;;;;;;;3.00;1.60;;;11.10;99.90;;;;;;4991539;28;20285;-78
2023/11/03 05:37:16;;;;;;;5.22;1.90;;;11.10;99.90;;;;;;4990128;28;20242;-78
2023/11/03 05:39:43;;;;;;;5.13;1.55;;;11.20;99.90;;;;;;4990958;28;20306;-77
2023/11/03 05:42:09;;;;;;;2.55;1.48;;;11.20;99.90;;;;;;4987015;28;20215;-77
2023/11/03 05:44:36;;;;;;;4.13;1.70;;;11.20;99.90;;;;;;4987314;28;20209;-78
2023/11/03 05:47:03;;;;;;;6.20;1.67;;;11.20;99.90;;;;;;4994192;28;20212;-77
2023/11/03 05:49:31;;;;;;;2.53;1.95;;;11.30;99.90;;;;;;4990202;28;20295;-77
2023/11/03 05:51:58;;;;;;;5.13;2.38;;;11.20;99.90;;;;;;5003092;28;20230;-78
2023/11/03 05:54:25;;;;;;;7.93;2.28;;;11.20;99.90;;;;;;4985418;28;20651;-78
2023/11/03 05:56:52;;;;;;;4.57;1.40;;;11.30;99.90;;;;;;4995678;28;20299;-77
2023/11/03 05:59:19;;;;;;;3.17;1.85;;;11.20;99.90;;;;;;4990537;28;20208;-78
2023/11/03 06:01:46;;;;;;;7.65;2.05;;;11.10;99.90;;;;;;4990502;28;20288;-79
2023/11/03 06:04:13;;;;;;;5.32;2.20;;;11.30;99.90;;;;;;4989773;28;20247;-78
2023/11/03 06:09:24;;;;;;;3.00;1.50;;;11.30;99.90;;;;;;4997240;28;20702;-81
2023/11/03 06:11:51;;;;;;;2.88;1.60;;;11.30;99.90;;;;;;4991779;28;20274;-78
2023/11/03 06:14:18;;;;;;;3.40;1.80;;;11.20;99.90;;;;;;4987390;28;20235;-79
2023/11/03 06:16:45;;;;;;;7.53;1.77;;;11.20;99.90;;;;;;4997310;28;20238;-80
2023/11/03 06:19:12;;;;;;;2.40;1.70;;;11.20;99.90;;;;;;5008850;28;20230;-76
2023/11/03 06:21:38;;;;;;;7.22;2.10;;;11.20;99.90;;;;;;5010319;28;20199;-79
2023/11/03 06:24:07;;;;;;;3.47;2.30;;;11.20;99.90;;;;;;5000938;28;20267;-81
2023/11/03 06:26:35;;;;;;;8.20;1.88;;;11.20;99.90;;;;;;4999523;28;20287;-79
2023/11/03 06:29:01;;;;;;;5.15;1.70;;;11.20;99.90;;;;;;5008481;28;20264;-80
2023/11/03 06:31:31;;;;;;;3.20;1.80;;;11.30;99.90;;;;;;5002381;28;20230;-80
2023/11/03 06:33:58;;;;;;;3.25;1.55;;;11.20;99.90;;;;;;5008087;28;20272;-81
2023/11/03 06:36:24;;;;;;;3.75;1.70;;;11.20;99.90;;;;;;5006305;28;20735;-79
2023/11/03 06:38:51;;;;;;;2.50;2.00;;;11.20;99.90;;;;;;5005883;28;20230;-81
2023/11/03 06:41:20;;;;;;;5.05;1.88;;;11.20;99.90;;;;;;5018681;28;20242;-81
2023/11/03 06:43:48;;;;;;;6.68;2.97;;;11.20;99.90;;;;;;4996213;28;20212;-81
2023/11/03 06:46:15;;;;;;;2.60;1.42;;;11.40;99.90;;;;;;5009490;28;20299;-81
2023/11/03 06:48:43;;;;;;;5.30;1.83;;;11.30;99.90;;;;;;5007163;28;20212;-81
2023/11/03 06:51:16;;;;;;;3.33;1.48;;;11.30;99.90;;;;;;5012485;28;20210;-89
2023/11/03 06:53:43;;;;;;;4.93;2.40;;;11.30;99.90;;;;;;5009008;28;20218;-81
2023/11/03 06:56:10;;;;;;;2.30;2.10;;;11.30;99.90;;;;;;4994613;28;20239;-81
2023/11/03 06:58:39;;;;;;;3.70;1.50;;;11.40;99.90;;;;;;5008591;28;20223;-82
2023/11/03 07:01:06;;;;;;;4.70;2.35;;;11.40;99.90;;;;;;5004544;28;20205;-84
2023/11/03 07:03:33;;;;;;;3.95;1.58;;;11.40;99.90;;;;;;4997539;28;20275;-82
2023/11/03 07:06:03;;;;;;;6.65;1.58;;;11.40;99.90;;;;;;5001806;28;20835;-82
2023/11/03 07:08:30;;;;;;;3.20;1.40;;;11.40;99.90;;;;;;4995058;28;20231;-83
2023/11/03 07:10:59;;;;;;;3.35;1.85;;;11.40;99.90;;;;;;4996048;28;20249;-86
2023/11/03 07:13:28;;;;;;;5.05;1.60;;;11.40;99.90;;;;;;5004811;28;20211;-81
2023/11/03 07:15:59;;;;;;;5.03;1.65;;;11.40;99.90;;;;;;5009839;28;20207;-80
2023/11/03 07:18:27;;;;;;;3.30;1.48;;;11.40;99.90;;;;;;5002947;28;20288;-82
2023/11/03 07:20:56;;;;;;;5.28;1.88;;;11.50;99.90;;;;;;5002178;28;20200;-81
2023/11/03 07:23:23;;;;;;;3.53;1.95;;;11.50;99.90;;;;;;5003516;28;20679;-81
2023/11/03 07:25:50;;;;;;;3.17;1.65;;;11.50;99.90;;;;;;4996786;28;20193;-80
2023/11/03 07:28:24;;;;;;;4.88;1.70;;;11.50;99.90;;;;;;5011575;23;20230;-75
2023/11/03 07:30:51;;;;;;;12.00;2.35;;;11.40;99.90;;;;;;4999269;28;20666;-73
2023/11/03 07:33:20;;;;;;;3.00;1.80;;;11.50;99.90;;;;;;4998131;28;20834;-70
2023/11/03 07:35:46;;;;;;;3.85;1.63;;;11.60;99.90;;;;;;4993318;28;20667;-73
2023/11/03 07:38:13;;;;;;;4.15;1.70;;;11.50;99.90;;;;;;4988392;28;20293;-74
2023/11/03 07:40:41;;;;;;;4.72;1.73;;;11.50;99.90;;;;;;4985602;28;20210;-72
2023/11/03 07:43:08;;;;;;;6.55;2.22;;;11.60;99.90;;;;;;4987567;28;20211;-71
2023/11/03 07:45:34;;;;;;;5.40;2.65;;;11.50;99.90;;;;;;4989418;28;20693;-71
2023/11/03 07:48:04;;;;;;;6.80;2.45;;;11.50;99.90;;;;;;4982707;28;20260;-74
2023/11/03 07:50:33;;;;;;;6.70;3.00;;;11.50;99.90;;;;;;4989822;28;20303;-71
2023/11/03 07:52:59;;;;;;;4.18;2.10;;;11.60;99.90;;;;;;4986529;28;20196;-75
2023/11/03 07:55:26;;;;;;;2.88;1.55;;;11.60;99.90;;;;;;4990860;28;20229;-73
2023/11/03 07:57:53;;;;;;;4.20;2.08;;;11.60;99.90;;;;;;4989081;28;20213;-71
2023/11/03 08:00:22;;;;;;;3.97;1.60;;;11.60;99.90;;;;;;4991689;28;20280;-71
2023/11/03 08:02:49;;;;;;;6.38;1.85;;;11.60;99.90;;;;;;4987341;28;20606;-73
2023/11/03 08:05:16;;;;;;;5.45;1.73;;;11.60;99.90;;;;;;4988640;28;20306;-71
2023/11/03 08:07:44;;;;;;;3.65;1.77;;;11.60;99.90;;;;;;4985902;28;20618;-73
2023/11/03 08:10:12;;;;;;;5.07;1.70;;;11.60;99.90;;;;;;4991182;28;20220;-75
2023/11/03 08:12:39;;;;;;;5.47;2.25;;;11.60;99.90;;;;;;4992715;28;20205;-73
2023/11/03 08:15:08;;;;;;;6.65;2.38;;;11.60;99.90;;;;;;4992229;28;20287;-71
2023/11/03 08:17:35;;;;;;;2.42;1.80;;;11.50;99.90;;;;;;4994714;28;20199;-70
2023/11/03 08:20:05;;;;;;;3.83;2.00;;;11.50;99.90;;;;;;4986421;28;20207;-74
2023/11/03 08:22:32;;;;;;;3.05;1.67;;;11.50;99.90;;;;;;4989383;28;20349;-73
2023/11/03 08:25:03;;;;;;;3.08;1.70;;;11.40;99.90;;;;;;4992358;28;21494;-74
2023/11/03 08:27:30;;;;;;;4.68;1.75;;;11.50;99.90;;;;;;4985403;28;20230;-74
2023/11/03 08:29:57;;;;;;;4.55;2.25;;;11.60;99.90;;;;;;4993307;28;20299;-72
2023/11/03 08:32:25;;;;;;;2.97;1.95;;;11.60;99.90;;;;;;4986458;28;20205;-75
2023/11/03 08:34:53;;;;;;;4.63;2.10;;;11.60;99.90;;;;;;4990110;28;20315;-74
2023/11/03 08:37:22;;;;;;;1.80;1.30;;;11.60;99.90;;;;;;4993344;28;20215;-75
2023/11/03 08:39:50;;;;;;;3.28;1.83;;;11.70;99.90;;;;;;4993757;28;20663;-73
2023/11/03 08:42:19;;;;;;;2.75;1.77;;;11.60;99.90;;;;;;4993261;28;20203;-74
2023/11/03 08:44:46;;;;;;;3.65;2.00;;;11.70;99.90;;;;;;4994847;28;20254;-71
2023/11/03 08:47:12;;;;;;;3.00;1.60;;;11.60;99.90;;;;;;4993236;28;20218;-74
2023/11/03 08:49:39;;;;;;;5.07;1.95;;;11.60;99.90;;;;;;4994374;28;20203;-73
2023/11/03 08:52:07;;;;;;;3.22;1.85;;;11.60;99.90;;;;;;4993957;28;20226;-72
2023/11/03 08:54:34;;;;;;;5.40;1.75;;;11.60;99.90;;;;;;4993445;28;20678;-73
2023/11/03 08:57:02;;;;;;;3.85;1.73;;;11.60;99.90;;;;;;4992640;28;20213;-72
2023/11/03 08:59:30;;;;;;;2.53;1.60;;;11.70;99.90;;;;;;4992570;28;20208;-74
2023/11/03 09:01:57;;;;;;;6.25;2.40;;;11.60;99.90;;;;;;4993732;28;20211;-75
2023/11/03 09:04:24;;;;;;;3.70;2.25;;;11.60;99.90;;;;;;4991560;28;20708;-73
2023/11/03 09:06:51;;;;;;;2.80;1.90;;;11.60;99.90;;;;;;4993660;28;20208;-75
2023/11/03 09:09:19;;;;;;;4.10;2.10;;;11.60;99.90;;;;;;4991493;28;20277;-76
2023/11/03 09:11:46;;;;;;;5.57;2.28;;;11.70;99.90;;;;;;5007370;23;20247;-62
2023/11/03 09:14:13;;;;;;;4.63;2.63;;;11.80;99.90;;;;;;5005404;28;20288;-65
2023/11/03 09:16:41;;;;;;;5.15;2.35;;;11.80;99.90;;;;;;4999571;28;20204;-63
2023/11/03 09:19:07;;;;;;;7.07;2.03;;;11.70;99.90;;;;;;4984237;28;20243;-65
2023/11/03 09:21:35;;;;;;;6.90;1.40;;;11.70;99.90;;;;;;4982831;28;20602;-63
2023/11/03 09:24:02;;;;;;;6.32;1.67;;;11.70;99.90;;;;;;4986140;28;20209;-64
2023/11/03 09:26:29;;;;;;;5.57;2.30;;;11.70;99.90;;;;;;4986764;28;20208;-65
2023/11/03 09:28:56;;;;;;;8.88;1.98;;;11.70;99.90;;;;;;4980213;28;20235;-64
2023/11/03 09:31:23;;;;;;;3.90;1.75;;;11.70;99.90;;;;;;4984555;28;20224;-64
2023/11/03 09:33:51;;;;;;;7.53;2.08;;;11.70;99.90;;;;;;4977303;28;20287;-63
2023/11/03 09:36:19;;;;;;;3.58;1.80;;;11.80;99.90;;;;;;4982515;28;20210;-62
2023/11/03 09:38:46;;;;;;;4.63;2.08;;;11.80;99.90;;;;;;4977788;28;20235;-63
2023/11/03 09:41:15;;;;;;;4.95;2.15;;;11.90;99.90;;;;;;4982610;28;20589;-63
2023/11/03 09:43:44;;;;;;;5.68;2.28;;;11.90;99.90;;;;;;4975702;28;20209;-63
2023/11/03 09:46:11;;;;;;;3.38;1.95;;;12.00;99.90;;;;;;4984214;28;20295;-61
2023/11/03 09:48:38;;;;;;;4.72;2.25;;;12.00;99.90;;;;;;4978030;28;20240;-64
2023/11/03 09:51:08;;;;;;;9.25;2.80;;;12.00;99.90;;;;;;4988459;28;20232;-63
2023/11/03 09:53:36;;;;;;;7.07;1.83;;;11.90;99.90;;;;;;4988799;28;20212;-62
2023/11/03 09:56:03;;;;;;;4.80;2.25;;;12.00;99.90;;;;;;4980135;28;20204;-62
2023/11/03 09:58:31;;;;;;;4.13;2.00;;;12.00;99.90;;;;;;4980291;28;20229;-62
2023/11/03 10:01:00;;;;;;;5.78;2.00;;;11.90;99.90;;;;;;4975664;28;20209;-65
2023/11/03 10:03:27;;;;;;;3.08;1.58;;;12.00;99.90;;;;;;4978813;28;20240;-64
2023/11/03 10:05:54;;;;;;;3.92;1.63;;;12.00;99.90;;;;;;4977326;28;20213;-63
2023/11/03 10:08:23;;;;;;;5.07;2.10;;;12.00;99.90;;;;;;4978522;28;20235;-62
2023/11/03 10:10:50;;;;;;;3.83;2.10;;;12.00;99.90;;;;;;4988320;28;20715;-63
2023/11/03 10:13:20;;;;;;;4.15;1.83;;;11.90;99.90;;;;;;4985080;28;20278;-62
2023/11/03 10:15:47;;;;;;;7.60;1.95;;;11.90;99.90;;;;;;4983131;28;20659;-63
2023/11/03 10:18:14;;;;;;;4.15;1.65;;;11.90;99.90;;;;;;4980948;28;20225;-63
2023/11/03 10:20:41;;;;;;;4.65;2.40;;;11.80;99.90;;;;;;4980666;28;20205;-66
2023/11/03 10:23:08;;;;;;;3.70;2.90;;;11.80;99.90;;;;;;4992032;28;20708;-62
2023/11/03 10:25:36;;;;;;;6.57;2.50;;;11.80;99.90;;;;;;4977466;28;20212;-63
2023/11/03 10:28:04;;;;;;;6.60;2.13;;;11.80;99.90;;;;;;4984352;28;20240;-60
2023/11/03 10:30:31;;;;;;;7.90;2.40;;;11.70;99.90;;;;;;4977258;28;20209;-63
2023/11/03 10:32:58;;;;;;;6.15;2.25;;;11.70;99.90;;;;;;4978315;28;20200;-61
2023/11/03 10:35:25;;;;;;;8.30;2.63;;;11.60;99.90;;;;;;4987452;28;20204;-64
2023/11/03 10:37:53;;;;;;;9.52;3.38;;;11.60;99.90;;;;;;4978081;28;20248;-63
2023/11/03 10:40:22;;;;;;;9.15;3.10;;;11.50;99.90;;;;;;4977579;28;20719;-65
2023/11/03 10:42:51;;;;;;;6.10;2.40;;;11.40;99.90;;;;;;4975674;28;20209;-63
2023/11/03 10:45:20;;;;;;;5.35;2.53;;;11.30;99.90;;;;;;4981372;28;20205;-62
2023/11/03 10:48:05;;;;;;;4.22;3.00;;;11.20;99.90;;;;;;4987515;28;20680;-62
2023/11/03 10:50:35;;;;;;;8.50;3.35;;;11.10;99.90;;;;;;4983549;28;20589;-65
2023/11/03 10:53:13;;;;;;;7.60;3.40;;;11.10;99.90;;;;;;4988710;28;20236;-64
2023/11/03 10:55:49;;;;;;;2.78;2.35;;;11.00;99.90;;;;;;4983520;28;20205;-64
2023/11/03 10:58:17;;;;;;;13.27;3.00;;;11.10;99.90;;;;;;4980210;28;20260;-63
2023/11/03 11:00:53;;;;;;;10.30;3.70;;;11.20;99.90;;;;;;4979603;28;20205;-64
2023/11/03 11:03:25;;;;;;;4.50;3.05;;;11.20;99.90;;;;;;4974863;28;20207;-65
2023/11/03 11:05:59;;;;;;;7.82;3.85;;;11.10;99.90;;;;;;4990498;28;20218;-69
2023/11/03 11:08:31;;;;;;;8.80;3.60;;;11.10;99.90;;;;;;4985734;28;20231;-63
2023/11/03 11:10:59;;;;;;;5.38;2.92;;;11.10;99.90;;;;;;4978375;28;20242;-66
2023/11/03 11:13:27;;;;;;;9.27;4.00;;;11.20;99.90;;;;;;4978812;28;20313;-62
2023/11/03 11:16:05;;;;;;;9.25;3.42;;;11.10;99.90;;;;;;4990414;28;20292;-62
2023/11/03 11:18:33;;;;;;;9.35;4.22;;;11.10;99.90;;;;;;4984051;28;20263;-62
2023/11/03 11:21:05;;;;;;;6.50;3.50;;;11.10;99.90;;;;;;4988699;28;20196;-67
2023/11/03 11:23:34;;;;;;;11.73;5.85;;;11.10;99.90;;;;;;4992921;28;20656;-63
2023/11/03 11:26:02;;;;;;;11.27;4.90;;;11.20;99.90;;;;;;4981811;28;20216;-63
2023/11/03 11:28:36;;;;;;;7.13;4.28;;;11.20;99.90;;;;;;4976361;28;20607;-61
2023/11/03 11:31:38;;;;;;;6.43;4.03;;;11.20;99.90;;;;;;4984326;28;20331;-63
2023/11/03 11:34:06;;;;;;;6.68;3.53;;;11.30;99.90;;;;;;4983300;28;20648;-60
2023/11/03 11:36:34;;;;;;;8.45;4.28;;;11.40;99.90;;;;;;4980259;28;20213;-60
2023/11/03 11:39:03;;;;;;;7.35;4.18;;;11.60;99.90;;;;;;4974078;28;20699;-63
2023/11/03 11:41:34;;;;;;;9.32;4.05;;;11.60;99.90;;;;;;4977988;28;20206;-62
2023/11/03 11:44:04;;;;;;;8.57;4.43;;;11.70;99.90;;;;;;4980897;28;20221;-61
2023/11/03 11:46:32;;;;;;;6.13;4.10;;;11.80;99.90;;;;;;4976667;28;20593;-63
2023/11/03 11:49:01;;;;;;;8.30;3.50;;;11.80;99.90;;;;;;4981524;28;20237;-61
2023/11/03 11:51:28;;;;;;;13.20;3.95;;;11.80;99.90;;;;;;4972036;28;20297;-62
2023/11/03 11:54:00;;;;;;;5.72;3.72;;;11.80;99.90;;;;;;4975116;28;20563;-62
2023/11/03 11:56:27;;;;;;;11.45;3.90;;;11.70;99.90;;;;;;4976114;28;20210;-62
2023/11/03 11:58:55;;;;;;;7.05;3.75;;;11.90;99.90;;;;;;4974484;28;20229;-62
2023/11/03 12:01:23;;;;;;;7.80;2.97;;;12.00;99.90;;;;;;4980271;28;20208;-65
2023/11/03 12:03:52;;;;;;;7.45;3.30;;;12.10;99.90;;;;;;4980477;28;20693;-62
2023/11/03 12:06:19;;;;;;;9.25;4.00;;;12.20;99.90;;;;;;4984346;28;20213;-62
2023/11/03 12:08:46;;;;;;;6.10;3.15;;;12.20;99.90;;;;;;4984350;28;20238;-61
2023/11/03 12:11:15;;;;;;;7.65;3.63;;;12.30;99.90;;;;;;4976234;28;20684;-61
2023/11/03 12:13:42;;;;;;;10.23;3.65;;;12.30;99.90;;;;;;4982490;28;20294;-63
2023/11/03 12:16:09;;;;;;;11.02;3.50;;;12.40;99.90;;;;;;4981468;28;20214;-63
2023/11/03 12:18:39;;;;;;;10.45;3.25;;;12.40;99.90;;;;;;4976315;28;20291;-61
2023/11/03 12:21:07;;;;;;;5.57;2.80;;;12.40;99.90;;;;;;4980351;28;20206;-62
2023/11/03 12:23:34;;;;;;;12.07;3.55;;;12.50;99.90;;;;;;4976001;28;20206;-62
2023/11/03 12:26:02;;;;;;;10.70;4.90;;;12.40;99.90;;;;;;4982424;28;20320;-63
2023/11/03 12:28:31;;;;;;;9.50;3.38;;;12.40;99.90;;;;;;4978210;28;20361;-61
2023/11/03 12:30:59;;;;;;;10.95;4.13;;;12.40;99.90;;;;;;4976049;28;20643;-62
2023/11/03 12:33:26;;;;;;;6.47;3.35;;;12.40;99.90;;;;;;4976654;28;20258;-62
2023/11/03 12:35:55;;;;;;;11.27;3.78;;;12.40;99.90;;;;;;4985721;28;20209;-62
2023/11/03 12:38:22;;;;;;;8.82;4.45;;;12.40;99.90;;;;;;4978504;28;20260;-59
2023/11/03 12:40:50;;;;;;;7.75;3.42;;;12.50;99.90;;;;;;4977527;28;20218;-63
2023/11/03 12:43:18;;;;;;;9.68;3.92;;;12.50;99.90;;;;;;4976856;28;20240;-62
2023/11/03 12:45:45;;;;;;;11.52;3.28;;;12.40;99.90;;;;;;4983583;28;20550;-62
2023/11/03 12:48:20;;;;;;;7.18;3.00;;;12.40;99.90;;;;;;4978003;28;20222;-62
2023/11/03 12:50:53;;;;;;;6.40;2.70;;;12.40;99.90;;;;;;4990658;28;20208;-62